createdAt,value
2019-03-05T00:01:16.653Z,2.40
2019-03-05T00:03:47.385Z,1.93
2019-03-05T00:06:18.108Z,2.47
2019-03-05T00:08:48.948Z,2.10
2019-03-05T00:11:20.678Z,2.93
2019-03-05T00:13:51.278Z,2.57
2019-03-05T00:16:21.905Z,2.57
2019-03-05T00:18:52.661Z,1.87
2019-03-05T00:21:23.157Z,2.03
2019-03-05T00:24:29.992Z,2.13
2019-03-05T00:27:00.577Z,1.10
2019-03-05T00:30:07.514Z,1.10
2019-03-05T00:32:38.174Z,1.10
2019-03-05T00:35:55.884Z,1.63
2019-03-05T00:38:55.610Z,1.30
2019-03-05T00:41:51.377Z,1.40
2019-03-05T00:44:59.053Z,1.30
2019-03-05T00:48:13.935Z,1.50
2019-03-05T00:51:32.364Z,1.47
2019-03-05T00:54:37.206Z,1.60
2019-03-05T00:57:24.354Z,1.30
2019-03-05T01:00:06.437Z,2.07
2019-03-05T01:03:10.258Z,1.67
2019-03-05T01:06:05.667Z,1.87
2019-03-05T01:08:36.409Z,1.30
2019-03-05T01:11:07.149Z,1.57
2019-03-05T01:13:38.701Z,1.70
2019-03-05T01:16:10.962Z,1.20
2019-03-05T01:18:41.713Z,1.97
2019-03-05T01:21:13.586Z,1.73
2019-03-05T01:23:44.363Z,1.73
2019-03-05T01:26:15.060Z,1.50
2019-03-05T01:28:45.733Z,1.57
2019-03-05T01:31:41.571Z,2.03
2019-03-05T01:34:23.326Z,1.63
2019-03-05T01:36:56.823Z,1.70
2019-03-05T01:39:41.443Z,1.40
2019-03-05T01:42:12.191Z,1.63
2019-03-05T01:44:42.929Z,1.77
2019-03-05T01:47:13.547Z,1.77
2019-03-05T01:49:44.091Z,2.07
2019-03-05T01:52:15.481Z,1.93
2019-03-05T01:54:47.704Z,2.20
2019-03-05T01:57:18.400Z,1.70
2019-03-05T01:59:48.892Z,1.50
2019-03-05T02:02:19.559Z,1.83
2019-03-05T02:04:50.175Z,2.00
2019-03-05T02:07:21.038Z,1.60
2019-03-05T02:09:51.631Z,1.30
2019-03-05T02:12:22.680Z,1.30
2019-03-05T02:14:54.485Z,1.47
2019-03-05T02:17:25.156Z,1.33
2019-03-05T02:19:56.728Z,1.43
2019-03-05T02:22:33.777Z,1.53
2019-03-05T02:25:25.876Z,1.50
2019-03-05T02:28:18.705Z,1.10
2019-03-05T02:31:54.822Z,1.50
2019-03-05T02:34:57.317Z,1.43
2019-03-05T02:38:15.502Z,1.67
2019-03-05T02:41:14.579Z,1.07
2019-03-05T02:44:30.696Z,0.83
2019-03-05T02:47:40.928Z,1.47
2019-03-05T02:50:35.977Z,1.80
2019-03-05T02:53:15.183Z,1.30
2019-03-05T02:56:27.073Z,1.67
2019-03-05T02:58:56.122Z,1.17
2019-03-05T03:01:35.146Z,1.43
2019-03-05T03:04:09.860Z,1.70
2019-03-05T03:06:40.563Z,1.43
2019-03-05T03:09:52.278Z,2.47
2019-03-05T03:12:22.944Z,1.30
2019-03-05T03:14:53.490Z,1.77
2019-03-05T03:17:24.052Z,1.13
2019-03-05T03:19:54.702Z,1.50
2019-03-05T03:22:25.423Z,1.63
2019-03-05T03:24:56.021Z,1.40
2019-03-05T03:27:26.634Z,1.30
2019-03-05T03:29:57.320Z,1.30
2019-03-05T03:32:27.830Z,1.93
2019-03-05T03:34:58.381Z,2.50
2019-03-05T03:37:29.077Z,1.67
2019-03-05T03:40:00.255Z,1.93
2019-03-05T03:42:31.195Z,1.53
2019-03-05T03:45:01.913Z,1.80
2019-03-05T03:47:32.650Z,1.17
2019-03-05T03:50:03.247Z,1.50
2019-03-05T03:52:34.026Z,1.33
2019-03-05T03:55:05.341Z,1.80
2019-03-05T03:57:35.936Z,1.63
2019-03-05T04:00:07.825Z,1.33
2019-03-05T04:02:38.435Z,1.47
2019-03-05T04:05:10.175Z,2.50
2019-03-05T04:07:41.128Z,0.90
2019-03-05T04:10:12.090Z,1.77
2019-03-05T04:12:42.762Z,1.70
2019-03-05T04:15:15.256Z,1.73
2019-03-05T04:17:45.941Z,1.03
2019-03-05T04:20:27.647Z,1.30
2019-03-05T04:22:58.391Z,1.23
2019-03-05T04:25:28.947Z,1.53
2019-03-05T04:27:59.962Z,1.47
2019-03-05T04:30:30.601Z,1.83
2019-03-05T04:33:01.374Z,1.30
2019-03-05T04:35:31.900Z,1.40
2019-03-05T04:38:02.815Z,1.83
2019-03-05T04:40:33.521Z,1.20
2019-03-05T04:43:04.523Z,1.53
2019-03-05T04:46:15.397Z,1.60
2019-03-05T04:49:05.491Z,1.23
2019-03-05T04:51:43.149Z,1.47
2019-03-05T04:54:13.901Z,1.77
2019-03-05T04:56:44.603Z,1.17
2019-03-05T04:59:15.154Z,2.50
2019-03-05T05:01:46.245Z,1.90
2019-03-05T05:04:16.884Z,6.50
2019-03-05T05:06:47.654Z,1.70
2019-03-05T05:09:18.141Z,1.50
2019-03-05T05:11:48.705Z,2.53
2019-03-05T05:14:19.336Z,1.00
2019-03-05T05:16:49.866Z,1.73
2019-03-05T05:19:20.767Z,1.80
2019-03-05T05:21:51.457Z,1.20
2019-03-05T05:24:22.105Z,1.80
2019-03-05T05:26:53.175Z,1.47
2019-03-05T05:29:23.880Z,1.23
2019-03-05T05:31:54.500Z,1.53
2019-03-05T05:34:25.140Z,1.70
2019-03-05T05:36:55.866Z,1.63
2019-03-05T05:40:04.713Z,1.90
2019-03-05T05:42:34.893Z,10.00
2019-03-05T05:45:07.943Z,2.33
2019-03-05T05:47:38.629Z,2.13
2019-03-05T05:50:09.275Z,1.90
2019-03-05T05:52:39.929Z,1.53
2019-03-05T05:55:10.617Z,1.40
2019-03-05T05:57:41.153Z,1.43
2019-03-05T06:00:13.956Z,1.93
2019-03-05T06:02:44.477Z,1.73
2019-03-05T06:05:15.641Z,2.00
2019-03-05T06:07:46.404Z,2.80
2019-03-05T06:10:17.124Z,1.53
2019-03-05T06:12:47.810Z,2.73
2019-03-05T06:15:18.532Z,1.67
2019-03-05T06:17:49.257Z,1.30
2019-03-05T06:20:19.887Z,1.40
2019-03-05T06:22:50.505Z,2.17
2019-03-05T06:25:21.248Z,1.97
2019-03-05T06:27:54.087Z,1.97
2019-03-05T06:30:25.486Z,1.20
2019-03-05T06:32:57.789Z,1.30
2019-03-05T06:35:29.214Z,3.50
2019-03-05T06:38:05.331Z,2.13
2019-03-05T06:40:36.996Z,1.60
2019-03-05T06:43:08.027Z,1.43
2019-03-05T06:45:39.056Z,1.83
2019-03-05T06:48:10.113Z,2.13
2019-03-05T06:50:43.943Z,4.00
2019-03-05T06:53:15.088Z,2.50
2019-03-05T06:55:45.718Z,1.70
2019-03-05T06:58:19.144Z,3.23
2019-03-05T07:00:50.053Z,3.17
2019-03-05T07:03:20.792Z,1.73
2019-03-05T07:06:27.544Z,1.80
2019-03-05T07:09:04.563Z,2.90
2019-03-05T07:11:58.047Z,3.57
2019-03-05T07:15:12.584Z,2.70
2019-03-05T07:17:48.116Z,1.60
2019-03-05T07:20:43.762Z,1.73
2019-03-05T07:23:43.934Z,1.53
2019-03-05T07:26:14.667Z,1.63
2019-03-05T07:28:45.565Z,2.00
2019-03-05T07:31:16.297Z,2.10
2019-03-05T07:33:47.021Z,2.07
2019-03-05T07:36:17.644Z,3.00
2019-03-05T07:38:48.331Z,1.90
2019-03-05T07:41:19.083Z,1.73
2019-03-05T07:43:49.974Z,2.10
2019-03-05T07:46:20.792Z,2.23
2019-03-05T07:48:51.527Z,3.40
2019-03-05T07:51:22.168Z,1.90
2019-03-05T07:53:52.873Z,2.70
2019-03-05T07:56:23.560Z,2.50
2019-03-05T07:58:54.123Z,2.13
2019-03-05T08:01:24.743Z,2.47
2019-03-05T08:03:55.400Z,1.83
2019-03-05T08:06:26.027Z,4.40
2019-03-05T08:09:30.813Z,3.10
2019-03-05T08:12:23.625Z,2.60
2019-03-05T08:15:23.496Z,1.90
2019-03-05T08:17:54.212Z,1.97
2019-03-05T08:20:24.877Z,2.67
2019-03-05T08:22:55.597Z,2.00
2019-03-05T08:25:26.209Z,2.00
2019-03-05T08:27:56.828Z,2.37
2019-03-05T08:30:27.777Z,1.97
2019-03-05T08:32:58.486Z,1.80
2019-03-05T08:35:29.587Z,2.07
2019-03-05T08:38:00.242Z,1.50
2019-03-05T08:40:30.949Z,1.53
2019-03-05T08:43:02.257Z,1.47
2019-03-05T08:45:33.010Z,3.00
2019-03-05T08:48:03.551Z,1.60
2019-03-05T08:50:34.258Z,2.57
2019-03-05T08:53:05.073Z,2.40
2019-03-05T08:55:35.814Z,1.70
2019-03-05T08:58:06.634Z,9.40
2019-03-05T09:00:37.263Z,1.83
2019-03-05T09:03:07.843Z,1.50
2019-03-05T09:05:38.505Z,1.53
2019-03-05T09:08:09.178Z,1.57
2019-03-05T09:10:40.994Z,1.40
2019-03-05T09:13:11.844Z,1.57
2019-03-05T09:15:42.429Z,1.47
2019-03-05T09:18:13.452Z,1.30
2019-03-05T09:20:44.568Z,1.30
2019-03-05T09:23:15.295Z,1.43
2019-03-05T09:25:45.926Z,1.87
2019-03-05T09:28:16.561Z,1.60
2019-03-05T09:30:47.179Z,4.40
2019-03-05T09:33:19.294Z,1.67
2019-03-05T09:35:50.089Z,1.60
2019-03-05T09:38:20.704Z,1.30
2019-03-05T09:40:51.371Z,1.43
2019-03-05T09:43:22.205Z,1.27
2019-03-05T09:45:53.065Z,1.10
2019-03-05T09:48:23.726Z,1.10
2019-03-05T09:50:54.320Z,1.10
2019-03-05T09:53:24.900Z,1.17
2019-03-05T09:55:55.809Z,1.03
2019-03-05T09:58:26.369Z,0.80
2019-03-05T10:00:57.534Z,1.20
2019-03-05T10:03:28.172Z,1.80
2019-03-05T10:05:59.134Z,6.23
2019-03-05T10:08:32.646Z,1.70
2019-03-05T10:11:02.098Z,0.90
2019-03-05T10:13:32.772Z,1.23
2019-03-05T10:16:03.501Z,1.20
2019-03-05T10:18:36.052Z,1.47
2019-03-05T10:21:06.889Z,1.50
2019-03-05T10:23:37.633Z,2.13
2019-03-05T10:26:10.420Z,1.50
2019-03-05T10:28:40.934Z,1.67
2019-03-05T10:31:11.967Z,0.97
2019-03-05T10:33:42.761Z,1.73
2019-03-05T10:36:13.820Z,1.13
2019-03-05T10:38:44.498Z,1.20
2019-03-05T10:41:15.187Z,1.27
2019-03-05T10:43:45.817Z,1.27
2019-03-05T10:46:16.555Z,1.33
2019-03-05T10:48:47.183Z,0.90
2019-03-05T10:51:17.976Z,0.73
2019-03-05T10:53:52.005Z,1.37
2019-03-05T10:56:22.804Z,0.90
2019-03-05T10:58:53.524Z,1.50
2019-03-05T11:01:24.701Z,1.50
2019-03-05T11:03:55.963Z,0.87
2019-03-05T11:06:26.828Z,1.00
2019-03-05T11:08:57.571Z,0.90
2019-03-05T11:11:28.961Z,0.93
2019-03-05T11:13:59.647Z,1.40
2019-03-05T11:16:31.268Z,1.07
2019-03-05T11:19:02.055Z,1.13
2019-03-05T11:21:32.854Z,1.83
2019-03-05T11:24:05.395Z,1.10
2019-03-05T11:26:36.047Z,0.87
2019-03-05T11:29:06.670Z,1.97
2019-03-05T11:31:37.631Z,0.80
2019-03-05T11:34:08.639Z,1.10
2019-03-05T11:36:39.192Z,1.20
2019-03-05T11:39:10.183Z,1.30
2019-03-05T11:41:41.115Z,0.60
2019-03-05T11:44:12.928Z,1.23
2019-03-05T11:46:43.566Z,1.20
2019-03-05T11:49:14.254Z,1.33
2019-03-05T11:51:46.183Z,1.10
2019-03-05T11:54:17.144Z,1.00
2019-03-05T11:56:49.121Z,1.17
2019-03-05T11:59:19.879Z,1.03
2019-03-05T12:01:51.715Z,1.40
2019-03-05T12:04:22.376Z,0.97
2019-03-05T12:06:53.013Z,0.80
2019-03-05T12:09:23.705Z,1.00
2019-03-05T12:11:54.389Z,1.87
2019-03-05T12:14:24.935Z,1.37
2019-03-05T12:16:56.126Z,1.00
2019-03-05T12:19:26.860Z,0.90
2019-03-05T12:21:58.692Z,1.43
2019-03-05T12:24:29.398Z,1.00
2019-03-05T12:27:00.113Z,0.83
2019-03-05T12:29:30.846Z,1.33
2019-03-05T12:32:01.467Z,1.27
2019-03-05T12:34:32.514Z,1.23
2019-03-05T12:37:03.134Z,0.70
2019-03-05T12:39:33.808Z,1.10
2019-03-05T12:42:04.667Z,1.10
2019-03-05T12:44:35.263Z,1.50
2019-03-05T12:47:06.224Z,1.13
2019-03-05T12:49:36.849Z,1.00
2019-03-05T12:52:07.670Z,1.17
2019-03-05T12:54:39.671Z,0.80
2019-03-05T12:57:10.318Z,1.30
2019-03-05T12:59:42.706Z,1.50
2019-03-05T13:02:13.421Z,1.13
2019-03-05T13:04:44.282Z,1.37
2019-03-05T13:07:17.737Z,0.93
2019-03-05T13:09:47.291Z,1.13
2019-03-05T13:12:18.026Z,1.17
2019-03-05T13:14:48.752Z,1.30
2019-03-05T13:17:20.148Z,1.27
2019-03-05T13:19:50.793Z,1.17
2019-03-05T13:22:24.829Z,1.10
2019-03-05T13:24:53.742Z,0.73
2019-03-05T13:27:24.429Z,0.97
2019-03-05T13:29:55.228Z,0.60
2019-03-05T13:32:25.791Z,0.83
2019-03-05T13:34:56.505Z,0.77
2019-03-05T13:37:28.555Z,1.10
2019-03-05T13:40:05.651Z,1.00
2019-03-05T13:42:36.739Z,0.77
2019-03-05T13:45:09.212Z,1.63
2019-03-05T13:47:46.832Z,1.30
2019-03-05T13:50:45.712Z,1.00
2019-03-05T13:54:11.991Z,1.80
2019-03-05T13:57:46.350Z,1.30
2019-03-05T14:00:17.461Z,1.53
2019-03-05T14:03:27.543Z,1.20
2019-03-05T14:06:42.448Z,1.30
2019-03-05T14:09:18.764Z,1.30
2019-03-05T14:11:53.150Z,1.07
2019-03-05T14:14:28.704Z,1.00
2019-03-05T14:17:21.872Z,2.87
2019-03-05T14:19:52.884Z,2.20
2019-03-05T14:22:23.495Z,4.37
2019-03-05T14:25:02.225Z,1.30
2019-03-05T14:27:26.623Z,1.10
2019-03-05T14:29:57.381Z,1.13
2019-03-05T14:32:28.026Z,1.20
2019-03-05T14:35:03.135Z,1.10
2019-03-05T14:37:34.255Z,1.80
2019-03-05T14:40:22.807Z,1.90
2019-03-05T14:42:38.919Z,1.13
2019-03-05T14:45:14.125Z,1.40
2019-03-05T14:47:45.253Z,1.33
2019-03-05T14:50:15.985Z,1.70
2019-03-05T14:52:46.683Z,2.17
2019-03-05T14:55:17.474Z,1.57
2019-03-05T14:57:48.676Z,2.30
2019-03-05T15:00:19.847Z,1.53
2019-03-05T15:02:50.548Z,1.60
2019-03-05T15:05:22.208Z,1.57
2019-03-05T15:07:53.047Z,1.30
2019-03-05T15:10:23.901Z,1.87
2019-03-05T15:12:54.626Z,1.70
2019-03-05T15:15:29.826Z,1.10
2019-03-05T15:18:00.579Z,1.33
2019-03-05T15:20:31.207Z,1.90
2019-03-05T15:23:01.853Z,1.67
2019-03-05T15:25:32.568Z,1.57
2019-03-05T15:28:03.341Z,3.63
2019-03-05T15:30:34.135Z,1.67
2019-03-05T15:33:04.908Z,2.40
2019-03-05T15:35:35.574Z,1.97
2019-03-05T15:38:06.355Z,1.87
2019-03-05T15:40:37.184Z,2.13
2019-03-05T15:43:07.947Z,1.73
2019-03-05T15:45:38.694Z,1.50
2019-03-05T15:48:10.560Z,2.43
2019-03-05T15:50:41.226Z,1.83
2019-03-05T15:53:11.910Z,1.17
2019-03-05T15:55:42.609Z,1.60
2019-03-05T15:58:13.364Z,1.73
2019-03-05T16:00:44.535Z,1.90
2019-03-05T16:03:15.187Z,2.10
2019-03-05T16:05:45.846Z,2.10
2019-03-05T16:08:16.529Z,1.80
2019-03-05T16:10:50.436Z,2.07
2019-03-05T16:13:21.163Z,3.10
2019-03-05T16:15:52.200Z,1.57
2019-03-05T16:18:22.909Z,2.60
2019-03-05T16:20:53.553Z,1.50
2019-03-05T16:23:24.152Z,1.50
2019-03-05T16:25:55.431Z,2.03
2019-03-05T16:28:26.106Z,1.70
2019-03-05T16:31:15.732Z,1.67
2019-03-05T16:33:58.998Z,1.70
2019-03-05T16:36:39.089Z,2.00
2019-03-05T16:39:31.810Z,1.87
2019-03-05T16:42:08.804Z,1.77
2019-03-05T16:45:02.953Z,1.87
2019-03-05T16:47:56.918Z,1.63
2019-03-05T16:50:42.005Z,1.90
2019-03-05T16:53:27.503Z,2.10
2019-03-05T16:56:16.306Z,1.60
2019-03-05T16:59:12.100Z,1.73
2019-03-05T17:02:16.953Z,1.63
2019-03-05T17:05:17.024Z,1.67
2019-03-05T17:08:05.236Z,1.30
2019-03-05T17:11:02.452Z,1.43
2019-03-05T17:13:33.385Z,1.90
2019-03-05T17:16:04.027Z,2.03
2019-03-05T17:18:34.989Z,2.43
2019-03-05T17:21:05.642Z,1.83
2019-03-05T17:23:36.511Z,2.27
2019-03-05T17:26:07.347Z,1.63
2019-03-05T17:28:38.030Z,1.70
2019-03-05T17:31:09.257Z,1.60
2019-03-05T17:33:39.991Z,1.73
2019-03-05T17:36:11.782Z,1.60
2019-03-05T17:38:42.863Z,2.37
2019-03-05T17:41:13.844Z,1.90
2019-03-05T17:43:45.834Z,1.97
2019-03-05T17:46:16.482Z,1.50
2019-03-05T17:48:48.542Z,2.30
2019-03-05T17:51:19.460Z,1.73
2019-03-05T17:53:50.192Z,1.60
2019-03-05T17:56:20.975Z,1.87
2019-03-05T17:58:51.775Z,1.33
2019-03-05T18:01:22.703Z,1.27
2019-03-05T18:03:54.746Z,1.80
2019-03-05T18:06:26.871Z,1.57
2019-03-05T18:08:58.595Z,2.00
2019-03-05T18:11:29.401Z,2.00
2019-03-05T18:14:00.279Z,2.30
2019-03-05T18:16:30.903Z,2.23
2019-03-05T18:19:01.591Z,2.50
2019-03-05T18:21:33.745Z,2.60
2019-03-05T18:24:04.630Z,2.20
2019-03-05T18:26:36.770Z,2.70
2019-03-05T18:29:08.084Z,2.30
2019-03-05T18:31:38.873Z,2.63
2019-03-05T18:34:10.382Z,2.40
2019-03-05T18:36:41.031Z,3.23
2019-03-05T18:39:12.639Z,3.60
2019-03-05T18:41:45.190Z,3.43
2019-03-05T18:44:16.131Z,2.80
2019-03-05T18:46:46.847Z,3.90
2019-03-05T18:49:17.607Z,3.53
2019-03-05T18:51:48.175Z,3.47
2019-03-05T18:54:18.776Z,2.87
2019-03-05T18:56:49.432Z,3.20
2019-03-05T18:59:20.029Z,3.43
2019-03-05T19:01:51.076Z,3.27
2019-03-05T19:04:21.796Z,3.00
2019-03-05T19:06:52.591Z,2.97
2019-03-05T19:09:23.231Z,4.40
2019-03-05T19:11:54.517Z,4.17
2019-03-05T19:14:25.193Z,4.00
2019-03-05T19:16:56.269Z,4.23
2019-03-05T19:19:26.897Z,4.63
2019-03-05T19:21:57.581Z,5.73
2019-03-05T19:24:28.148Z,4.63
2019-03-05T19:26:58.854Z,5.00
2019-03-05T19:29:29.445Z,4.63
2019-03-05T19:32:00.071Z,4.40
2019-03-05T19:34:30.742Z,4.27
2019-03-05T19:37:01.431Z,6.83
2019-03-05T19:39:32.242Z,7.40
2019-03-05T19:42:03.293Z,12.23
2019-03-05T19:44:34.134Z,11.07
2019-03-05T19:47:04.770Z,5.17
2019-03-05T19:49:35.951Z,6.73
2019-03-05T19:52:06.650Z,5.50
2019-03-05T19:54:37.305Z,5.87
2019-03-05T19:57:07.965Z,6.53
2019-03-05T19:59:38.634Z,5.03
2019-03-05T20:02:09.263Z,5.50
2019-03-05T20:04:39.902Z,5.67
2019-03-05T20:07:10.593Z,4.73
2019-03-05T20:09:41.374Z,5.83
2019-03-05T20:12:12.475Z,4.47
2019-03-05T20:14:43.222Z,5.23
2019-03-05T20:17:14.023Z,6.67
2019-03-05T20:19:44.748Z,4.73
2019-03-05T20:22:15.645Z,5.90
2019-03-05T20:24:46.397Z,4.97
2019-03-05T20:27:17.247Z,5.70
2019-03-05T20:29:48.035Z,4.67
2019-03-05T20:32:20.014Z,4.33
2019-03-05T20:34:50.802Z,5.70
2019-03-05T20:37:21.644Z,6.03
2019-03-05T20:39:52.470Z,4.77
2019-03-05T20:42:23.781Z,5.57
2019-03-05T20:44:55.006Z,5.67
2019-03-05T20:47:25.829Z,5.80
2019-03-05T20:49:56.977Z,5.77
2019-03-05T20:52:27.810Z,6.67
2019-03-05T20:54:58.627Z,5.60
2019-03-05T20:57:29.521Z,6.43
2019-03-05T21:00:00.262Z,6.27
2019-03-05T21:02:31.325Z,7.10
2019-03-05T21:05:03.201Z,6.77
2019-03-05T21:07:34.461Z,6.33
2019-03-05T21:10:05.862Z,7.30
2019-03-05T21:12:38.009Z,7.40
2019-03-05T21:15:09.882Z,6.87
2019-03-05T21:17:41.211Z,6.10
2019-03-05T21:20:12.429Z,7.07
2019-03-05T21:22:43.317Z,10.37
2019-03-05T21:25:15.021Z,7.57
2019-03-05T21:27:46.511Z,7.63
2019-03-05T21:30:18.492Z,8.40
2019-03-05T21:32:50.668Z,7.30
2019-03-05T21:35:21.464Z,12.57
2019-03-05T21:37:53.467Z,8.43
2019-03-05T21:40:24.479Z,7.13
2019-03-05T21:42:55.315Z,7.23
2019-03-05T21:45:31.526Z,9.00
2019-03-05T21:48:02.748Z,7.20
2019-03-05T21:50:34.705Z,7.70
2019-03-05T21:53:05.602Z,7.30
2019-03-05T21:55:36.173Z,7.23
2019-03-05T21:58:08.003Z,7.43
2019-03-05T22:00:38.519Z,7.13
2019-03-05T22:03:09.590Z,8.67
2019-03-05T22:05:41.208Z,7.70
2019-03-05T22:08:12.367Z,7.77
2019-03-05T22:10:43.107Z,7.90
2019-03-05T22:13:13.768Z,7.00
2019-03-05T22:15:44.366Z,7.20
2019-03-05T22:18:15.067Z,7.93
2019-03-05T22:20:45.992Z,7.17
2019-03-05T22:23:16.943Z,8.07
2019-03-05T22:25:47.891Z,8.03
2019-03-05T22:28:18.614Z,7.60
2019-03-05T22:30:49.246Z,8.27
2019-03-05T22:33:19.996Z,8.83
2019-03-05T22:35:50.569Z,8.93
2019-03-05T22:38:21.677Z,9.37
2019-03-05T22:40:52.755Z,9.13
2019-03-05T22:43:23.348Z,8.13
2019-03-05T22:45:54.137Z,8.57
2019-03-05T22:48:24.834Z,8.07
2019-03-05T22:50:55.863Z,8.17
2019-03-05T22:53:26.696Z,8.47
2019-03-05T22:55:57.511Z,8.23
2019-03-05T22:58:28.078Z,8.27
2019-03-05T23:01:20.512Z,9.33
2019-03-05T23:03:55.352Z,9.30
2019-03-05T23:06:26.176Z,9.60
2019-03-05T23:08:57.210Z,8.60
2019-03-05T23:11:28.499Z,10.10
2019-03-05T23:13:59.369Z,9.83
2019-03-05T23:16:30.311Z,9.13
2019-03-05T23:19:01.446Z,8.33
2019-03-05T23:21:32.137Z,8.33
2019-03-05T23:24:02.743Z,8.57
2019-03-05T23:26:35.202Z,9.03
2019-03-05T23:29:08.145Z,7.53
2019-03-05T23:31:39.183Z,9.73
2019-03-05T23:34:18.010Z,9.73
2019-03-05T23:36:42.699Z,9.53
2019-03-05T23:39:17.394Z,8.43
2019-03-05T23:41:48.495Z,8.60
2019-03-05T23:44:19.179Z,9.10
2019-03-05T23:47:01.376Z,9.33
2019-03-05T23:49:32.481Z,9.13
2019-03-05T23:52:03.285Z,9.43
2019-03-05T23:54:34.964Z,8.90
2019-03-05T23:57:05.782Z,8.47
2019-03-05T23:59:36.844Z,9.57
